Time;durP1;ratioP1;P1;durP2;ratioP2;P2;SDS_P1;SDS_P2;PMS_P1;PMS_P2;Temp;Humidity;BMP_temperature;BMP_pressure;BME280_temperature;BME280_humidity;BME280_pressure;Samples;Min_cycle;Max_cycle;Signal;HPM_P1;HPM_P2
2021/06/13 00:01:52;;;;;;;3.17;0.78;;;;;;;17.16;74.93;98760.80;1793669;78;21630;-54
2021/06/13 00:04:18;;;;;;;0.90;0.70;;;;;;;17.15;74.91;98750.43;1791425;78;21191;-55
2021/06/13 00:06:45;;;;;;;1.27;0.70;;;;;;;17.16;74.95;98744.00;1791942;78;21112;-55
2021/06/13 00:09:13;;;;;;;2.65;0.90;;;;;;;17.17;74.93;98742.14;1790924;78;21431;-54
2021/06/13 00:11:39;;;;;;;2.70;0.90;;;;;;;17.16;74.88;98737.20;1793843;78;21512;-55
2021/06/13 00:14:06;;;;;;;1.20;0.80;;;;;;;17.17;74.82;98736.70;1758762;80;21482;-55
2021/06/13 00:16:32;;;;;;;3.72;1.27;;;;;;;17.16;74.78;98730.40;1775359;79;21092;-56
2021/06/13 00:18:58;;;;;;;0.95;0.90;;;;;;;17.16;74.76;98723.60;1766861;79;21273;-55
2021/06/13 00:21:24;;;;;;;0.90;0.70;;;;;;;17.14;74.64;98716.58;1770999;79;21448;-57
2021/06/13 00:23:51;;;;;;;1.10;0.98;;;;;;;17.13;74.65;98717.07;1761802;80;21097;-56
2021/06/13 00:26:18;;;;;;;1.07;0.80;;;;;;;17.12;74.66;98713.13;1769512;79;21098;-55
2021/06/13 00:28:45;;;;;;;0.60;0.60;;;;;;;17.10;74.65;98703.75;1774923;79;21137;-56
2021/06/13 00:31:11;;;;;;;1.15;0.70;;;;;;;17.10;74.61;98704.28;1770862;80;20881;-57
2021/06/13 00:33:38;;;;;;;1.85;0.90;;;;;;;17.10;74.57;98711.08;1775559;79;20945;-57
2021/06/13 00:36:04;;;;;;;2.55;0.90;;;;;;;17.08;74.50;98704.41;1775038;79;20990;-55
2021/06/13 00:38:31;;;;;;;2.12;0.80;;;;;;;17.05;74.56;98699.23;1775352;79;21074;-57
2021/06/13 00:40:57;;;;;;;2.42;0.80;;;;;;;17.03;74.54;98695.80;1775625;79;21971;-54
2021/06/13 00:43:24;;;;;;;2.25;0.85;;;;;;;16.99;74.51;98695.23;1779453;80;21460;-55
2021/06/13 00:45:50;;;;;;;1.40;0.62;;;;;;;16.98;74.49;98692.65;1776017;79;21455;-55
2021/06/13 00:48:17;;;;;;;1.42;1.00;;;;;;;16.95;74.46;98692.42;1776280;80;21044;-55
2021/06/13 00:50:47;;;;;;;1.00;0.90;;;;;;;16.94;74.50;98687.12;1773950;79;21147;-56
2021/06/13 00:53:15;;;;;;;1.57;1.00;;;;;;;16.92;74.49;98688.64;1778257;79;21117;-55
2021/06/13 00:55:44;;;;;;;2.92;1.02;;;;;;;16.91;74.50;98684.70;1761966;79;21675;-55
2021/06/13 00:58:10;;;;;;;3.90;0.85;;;;;;;16.88;74.52;98675.45;1759455;80;21540;-55
2021/06/13 01:00:38;;;;;;;1.00;0.80;;;;;;;16.87;74.46;98673.73;1748128;80;21052;-56
2021/06/13 01:03:07;;;;;;;1.37;0.90;;;;;;;16.86;74.43;98666.57;1749158;81;20941;-55
2021/06/13 01:05:34;;;;;;;1.15;1.05;;;;;;;16.85;74.46;98670.28;1780257;78;21102;-55
2021/06/13 01:08:41;;;;;;;0.95;0.80;;;;;;;16.82;74.44;98674.16;1753801;81;21014;-54
2021/06/13 01:11:45;;;;;;;0.80;0.70;;;;;;;16.79;74.42;98669.00;1748880;81;21037;-56
2021/06/13 01:14:40;;;;;;;1.25;0.78;;;;;;;16.75;74.42;98666.22;1760153;79;21050;-55
2021/06/13 01:17:18;;;;;;;;;;;;;;;16.72;74.49;98666.48;1775190;80;21076;-57
2021/06/13 01:19:52;;;;;;;0.95;0.85;;;;;;;16.68;74.59;98651.94;1774171;80;21095;-55
2021/06/13 01:22:55;;;;;;;2.05;0.90;;;;;;;16.63;74.60;98651.87;1772260;80;29165;-57
2021/06/13 01:26:11;;;;;;;1.30;0.80;;;;;;;16.60;74.68;98648.52;1770374;80;21061;-58
2021/06/13 01:29:03;;;;;;;1.10;1.00;;;;;;;16.54;74.77;98658.09;1773659;78;20984;-54
2021/06/13 01:31:41;;;;;;;3.58;1.00;;;;;;;16.50;74.85;98659.35;1752648;81;21491;-55
2021/06/13 01:34:11;;;;;;;2.20;0.82;;;;;;;16.47;74.99;98658.78;1752017;81;21811;-54
2021/06/13 01:36:38;;;;;;;2.08;0.78;;;;;;;16.43;75.01;98660.91;1738601;80;21120;-56
2021/06/13 01:39:07;;;;;;;3.65;0.90;;;;;;;16.40;75.09;98653.05;1772252;80;21136;-56
2021/06/13 01:41:34;;;;;;;1.60;0.88;;;;;;;16.39;75.17;98647.25;1738672;80;21733;-53
2021/06/13 01:44:02;;;;;;;2.30;0.85;;;;;;;16.38;75.34;98644.67;1770573;80;21622;-55
2021/06/13 01:46:32;;;;;;;1.65;1.00;;;;;;;16.38;75.50;98648.25;1772170;80;21589;-53
2021/06/13 01:49:00;;;;;;;2.33;1.35;;;;;;;16.39;75.65;98649.11;1769137;79;21088;-55
2021/06/13 01:51:26;;;;;;;1.12;0.90;;;;;;;16.40;75.84;98642.19;1769659;80;21064;-55
2021/06/13 01:53:53;;;;;;;2.22;1.05;;;;;;;16.42;75.94;98645.60;1772001;80;21795;-54
2021/06/13 01:56:21;;;;;;;2.12;1.15;;;;;;;16.43;75.96;98637.81;1776962;80;21013;-56
2021/06/13 01:58:49;;;;;;;2.30;0.93;;;;;;;16.44;75.98;98638.67;1773628;80;21496;-56
2021/06/13 02:01:26;;;;;;;3.60;1.00;;;;;;;16.45;76.05;98627.68;1772895;80;21586;-54
2021/06/13 02:03:55;;;;;;;1.37;1.00;;;;;;;16.48;76.07;98627.42;1776421;79;20914;-56
2021/06/13 02:06:29;;;;;;;1.10;0.80;;;;;;;16.51;76.08;98626.26;1747680;80;20933;-57
2021/06/13 02:08:56;;;;;;;2.67;1.10;;;;;;;16.52;76.02;98621.19;1772576;79;21044;-55
2021/06/13 02:11:23;;;;;;;1.72;1.10;;;;;;;16.54;75.99;98618.70;1775619;79;21074;-56
2021/06/13 02:15:46;;;;;;;1.20;1.10;;;;;;;16.62;75.91;98609.39;1775449;78;24604;-55
2021/06/13 02:18:12;;;;;;;1.30;1.20;;;;;;;16.60;75.86;98612.70;1738842;80;21009;-57
2021/06/13 02:20:39;;;;;;;3.00;1.20;;;;;;;16.62;75.78;98612.11;1735816;80;20974;-56
2021/06/13 02:23:05;;;;;;;1.42;1.00;;;;;;;16.63;75.67;98602.97;1738232;80;21471;-55
2021/06/13 02:25:32;;;;;;;7.72;1.00;;;;;;;16.65;75.50;98609.62;1734344;80;21085;-58
2021/06/13 02:28:00;;;;;;;6.45;0.90;;;;;;;16.68;75.44;98607.97;1735190;80;21098;-58
2021/06/13 02:30:32;;;;;;;2.90;1.00;;;;;;;16.71;75.38;98606.83;1701095;81;21008;-56
2021/06/13 02:32:59;;;;;;;3.22;0.90;;;;;;;16.74;75.33;98598.41;1699234;81;21746;-53
2021/06/13 02:35:30;;;;;;;2.58;1.02;;;;;;;16.75;75.20;98594.20;1699763;81;20882;-56
2021/06/13 02:37:57;;;;;;;1.10;0.90;;;;;;;16.77;75.14;98598.11;1669613;83;21661;-55
2021/06/13 02:40:26;;;;;;;1.80;1.00;;;;;;;16.78;75.13;98602.05;1701863;82;21097;-56
2021/06/13 02:42:52;;;;;;;1.30;1.02;;;;;;;16.79;75.14;98592.91;1690356;82;21121;-56
2021/06/13 02:45:23;;;;;;;1.22;0.93;;;;;;;16.81;75.09;98590.91;1685512;82;21188;-55
2021/06/13 02:47:51;;;;;;;1.37;0.98;;;;;;;16.84;75.06;98592.50;1684908;82;21116;-55
2021/06/13 02:50:22;;;;;;;1.10;0.82;;;;;;;16.86;74.97;98593.19;1683499;82;21085;-55
2021/06/13 02:53:32;;;;;;;2.10;0.80;;;;;;;16.87;75.00;98593.05;1679809;82;21117;-58
2021/06/13 02:56:06;;;;;;;2.55;0.90;;;;;;;16.90;75.07;98590.06;1662308;84;21530;-55
2021/06/13 02:58:41;;;;;;;2.30;0.80;;;;;;;16.95;75.03;98585.55;1632654;82;21574;-55
2021/06/13 03:01:09;;;;;;;4.12;1.20;;;;;;;16.98;74.95;98576.63;1686064;82;20997;-57
2021/06/13 03:03:35;;;;;;;1.30;0.80;;;;;;;17.03;74.85;98577.54;1685786;82;21096;-57
2021/06/13 03:06:13;;;;;;;1.37;0.88;;;;;;;17.07;74.72;98579.48;1682949;82;21118;-55
2021/06/13 03:08:41;;;;;;;1.62;1.00;;;;;;;17.11;74.66;98588.55;1679760;82;21119;-56
2021/06/13 03:11:08;;;;;;;2.52;0.90;;;;;;;17.13;74.63;98592.00;1684878;82;21169;-55
2021/06/13 03:13:35;;;;;;;1.52;0.98;;;;;;;17.18;74.60;98587.51;1685561;82;21068;-55
2021/06/13 03:16:02;;;;;;;1.65;0.88;;;;;;;17.22;74.47;98587.06;1700824;82;21274;-56
2021/06/13 03:20:59;;;;;;;3.30;0.90;;;;;;;17.35;74.34;98575.91;1848030;75;28509;-58
2021/06/13 03:23:27;;;;;;;1.12;1.02;;;;;;;17.35;74.32;98584.89;1811133;77;20979;-55
2021/06/13 03:25:54;;;;;;;2.65;1.10;;;;;;;17.38;74.24;98587.33;1767527;78;21166;-58
2021/06/13 03:28:21;;;;;;;1.20;1.00;;;;;;;17.42;74.25;98592.00;1773221;78;20941;-58
2021/06/13 03:30:48;;;;;;;2.05;1.55;;;;;;;17.45;74.05;98590.33;1776277;78;21286;-55
2021/06/13 03:33:15;;;;;;;1.65;0.90;;;;;;;17.47;73.89;98591.55;1776364;78;21220;-55
2021/06/13 03:35:42;;;;;;;1.77;1.25;;;;;;;17.50;73.72;98589.91;1755376;79;21423;-56
2021/06/13 03:38:10;;;;;;;1.30;1.20;;;;;;;17.53;73.62;98593.17;1758453;79;21732;-55
2021/06/13 03:40:37;;;;;;;9.68;1.20;;;;;;;17.56;73.52;98592.89;1768264;79;21011;-59
2021/06/13 03:43:03;;;;;;;1.22;0.90;;;;;;;17.61;73.53;98590.58;1746092;79;21036;-56
2021/06/13 03:45:30;;;;;;;1.77;1.40;;;;;;;17.67;73.53;98589.19;1744372;80;22336;-56
2021/06/13 03:47:58;;;;;;;1.87;1.20;;;;;;;17.70;73.50;98580.71;1742077;80;21132;-57
2021/06/13 03:50:25;;;;;;;2.00;1.12;;;;;;;17.75;73.50;98579.79;1744081;80;21179;-57
2021/06/13 03:52:51;;;;;;;2.17;1.07;;;;;;;17.78;73.40;98581.69;1741217;80;21310;-56
2021/06/13 03:55:18;;;;;;;5.90;1.25;;;;;;;17.82;73.21;98578.69;1741956;80;21449;-57
2021/06/13 03:57:49;;;;;;;2.15;0.88;;;;;;;17.87;73.02;98579.09;1740616;80;21076;-53
2021/06/13 04:00:17;;;;;;;1.10;1.00;;;;;;;17.92;73.00;98576.30;1741843;80;21482;-56
2021/06/13 04:02:45;;;;;;;2.10;1.05;;;;;;;18.02;72.77;98578.98;1743107;80;21076;-55
2021/06/13 04:05:13;;;;;;;2.58;1.00;;;;;;;18.10;72.78;98577.73;1712761;80;21586;-57
2021/06/13 04:07:42;;;;;;;3.40;1.30;;;;;;;18.18;72.46;98568.81;1742014;80;21160;-56
2021/06/13 04:10:10;;;;;;;4.70;1.50;;;;;;;18.22;72.32;98571.07;1745287;80;21128;-56
2021/06/13 04:12:37;;;;;;;2.47;1.00;;;;;;;18.28;72.19;98569.63;1745348;80;20974;-58
2021/06/13 04:15:05;;;;;;;3.05;0.80;;;;;;;18.33;72.24;98568.66;1717768;80;21148;-56
2021/06/13 04:17:32;;;;;;;3.52;1.30;;;;;;;18.39;72.28;98569.41;1747565;80;20931;-56
2021/06/13 04:19:58;;;;;;;1.72;0.85;;;;;;;18.45;72.13;98571.55;1751201;80;21032;-55
2021/06/13 04:22:25;;;;;;;2.30;0.93;;;;;;;18.52;71.96;98569.92;1747048;80;21482;-56
2021/06/13 04:24:53;;;;;;;4.40;1.12;;;;;;;18.62;71.77;98564.45;1751052;80;21096;-55
2021/06/13 04:27:23;;;;;;;4.90;1.15;;;;;;;18.69;71.64;98560.09;1741980;80;22686;-59
2021/06/13 04:29:50;;;;;;;2.52;1.20;;;;;;;18.78;71.35;98559.18;1749146;80;21704;-56
2021/06/13 04:32:17;;;;;;;1.72;1.22;;;;;;;18.85;71.12;98559.77;1756659;80;20921;-57
2021/06/13 04:34:43;;;;;;;4.22;1.10;;;;;;;18.95;70.82;98562.92;1751588;80;21124;-55
2021/06/13 04:37:09;;;;;;;3.65;1.40;;;;;;;19.02;70.83;98564.88;1749406;80;21332;-59
2021/06/13 04:39:37;;;;;;;5.45;1.85;;;;;;;19.09;70.44;98569.19;1737434;80;21778;-55
2021/06/13 04:42:07;;;;;;;1.67;1.17;;;;;;;19.16;70.27;98565.67;1737757;80;21467;-58
2021/06/13 04:44:34;;;;;;;2.27;1.02;;;;;;;19.22;69.84;98559.58;1748458;80;21084;-53
2021/06/13 04:47:01;;;;;;;4.65;1.22;;;;;;;19.30;69.57;98561.55;1748431;80;20906;-58
2021/06/13 04:49:27;;;;;;;1.25;1.10;;;;;;;19.36;69.42;98569.09;1748488;80;20993;-56
2021/06/13 04:51:57;;;;;;;1.10;1.00;;;;;;;19.41;69.47;98563.16;1744549;80;21117;-56
2021/06/13 04:54:45;;;;;;;2.75;1.00;;;;;;;19.48;68.86;98565.12;1743594;80;21446;-55
2021/06/13 04:57:26;;;;;;;1.55;1.02;;;;;;;19.53;68.50;98557.33;1744843;80;21036;-55
2021/06/13 04:59:53;;;;;;;2.33;1.52;;;;;;;19.59;68.36;98556.69;1745348;80;21693;-59
2021/06/13 05:02:19;;;;;;;1.50;1.00;;;;;;;19.64;68.12;98557.59;1747617;80;21508;-59
2021/06/13 05:04:45;;;;;;;1.70;0.88;;;;;;;19.70;68.06;98558.30;1746992;80;21060;-56
2021/06/13 05:07:12;;;;;;;1.45;0.90;;;;;;;19.77;67.96;98562.61;1744858;80;21097;-54
2021/06/13 05:09:38;;;;;;;1.50;0.80;;;;;;;19.81;67.62;98564.88;1745810;80;21073;-54
2021/06/13 05:12:06;;;;;;;1.45;0.88;;;;;;;19.87;67.79;98559.27;1719167;80;21052;-56
2021/06/13 05:14:32;;;;;;;1.10;1.00;;;;;;;19.94;67.50;98556.23;1746807;80;21127;-56
2021/06/13 05:16:59;;;;;;;2.20;1.20;;;;;;;20.02;66.92;98563.95;1744267;80;21123;-55
2021/06/13 05:19:25;;;;;;;3.77;0.90;;;;;;;20.09;66.69;98555.10;1746543;80;21052;-57
2021/06/13 05:21:51;;;;;;;2.47;0.90;;;;;;;20.15;66.55;98546.28;1741234;80;21073;-57
2021/06/13 05:24:17;;;;;;;3.15;0.80;;;;;;;20.21;65.98;98545.62;1742245;80;21808;-55
2021/06/13 05:26:44;;;;;;;1.25;0.70;;;;;;;20.25;65.60;98545.11;1742556;80;21124;-56
2021/06/13 05:29:10;;;;;;;3.50;0.70;;;;;;;20.30;65.21;98540.03;1744461;80;21435;-57
2021/06/13 05:31:37;;;;;;;0.70;0.70;;;;;;;20.38;64.96;98540.09;1747332;80;21064;-54
2021/06/13 05:34:03;;;;;;;0.80;0.70;;;;;;;20.44;64.05;98533.09;1739053;80;21132;-60
2021/06/13 05:36:29;;;;;;;0.70;0.70;;;;;;;20.49;63.98;98533.47;1744007;80;20949;-55
2021/06/13 05:38:56;;;;;;;1.30;0.70;;;;;;;20.56;63.74;98539.98;1741647;80;21440;-56
2021/06/13 05:41:22;;;;;;;2.55;0.70;;;;;;;20.60;63.26;98533.14;1739463;80;21130;-57
2021/06/13 05:43:48;;;;;;;5.67;0.70;;;;;;;20.66;63.29;98531.64;1745720;80;21120;-57
2021/06/13 05:46:14;;;;;;;0.93;0.80;;;;;;;20.72;63.34;98534.56;1747429;80;21124;-55
2021/06/13 05:48:41;;;;;;;1.22;0.70;;;;;;;20.80;63.49;98527.39;1742946;80;21638;-57
2021/06/13 05:51:07;;;;;;;0.80;0.60;;;;;;;20.87;63.61;98536.11;1745576;80;21109;-56
2021/06/13 05:53:34;;;;;;;0.90;0.70;;;;;;;20.96;63.28;98531.00;1744431;80;21108;-55
2021/06/13 05:56:00;;;;;;;1.25;0.60;;;;;;;21.06;62.64;98537.17;1745318;80;21053;-56
2021/06/13 05:58:26;;;;;;;1.22;0.70;;;;;;;21.14;61.94;98534.95;1743805;80;21140;-56
2021/06/13 06:00:53;;;;;;;0.70;0.70;;;;;;;21.20;61.89;98534.81;1742349;80;21478;-55
2021/06/13 06:03:19;;;;;;;5.12;0.62;;;;;;;21.27;61.83;98539.94;1743765;80;21531;-57
2021/06/13 06:05:46;;;;;;;0.85;0.70;;;;;;;21.32;61.70;98541.16;1746391;80;21350;-55
2021/06/13 06:08:12;;;;;;;1.17;0.70;;;;;;;21.38;61.61;98543.20;1745600;80;22151;-57
2021/06/13 06:10:38;;;;;;;1.85;0.98;;;;;;;21.42;60.88;98541.84;1741604;80;21103;-58
2021/06/13 06:13:05;;;;;;;3.25;0.80;;;;;;;21.44;61.20;98545.24;1743458;80;21040;-56
2021/06/13 06:15:34;;;;;;;1.45;0.90;;;;;;;21.49;61.44;98537.39;1742800;80;21088;-57
2021/06/13 06:18:01;;;;;;;0.88;0.70;;;;;;;21.55;61.13;98539.94;1746890;80;21630;-58
2021/06/13 06:20:28;;;;;;;1.75;0.80;;;;;;;21.59;61.27;98545.42;1746652;80;20861;-59
2021/06/13 06:22:55;;;;;;;0.70;0.70;;;;;;;21.65;61.22;98537.87;1751603;80;21973;-58
2021/06/13 06:25:21;;;;;;;3.30;0.80;;;;;;;21.71;60.50;98535.81;1747592;80;21385;-57
2021/06/13 06:27:49;;;;;;;0.93;0.70;;;;;;;21.74;60.04;98535.98;1747950;80;21812;-60
2021/06/13 06:30:17;;;;;;;1.98;0.78;;;;;;;21.77;60.25;98540.61;1747885;80;21017;-57
2021/06/13 06:32:43;;;;;;;0.78;0.60;;;;;;;21.81;60.13;98533.73;1748531;80;20894;-60
2021/06/13 06:35:11;;;;;;;1.20;0.93;;;;;;;21.88;59.97;98541.59;1746000;80;21033;-58
2021/06/13 06:37:39;;;;;;;2.00;0.80;;;;;;;21.96;60.22;98533.01;1748039;80;21044;-54
2021/06/13 06:40:07;;;;;;;1.92;0.85;;;;;;;22.02;60.23;98538.70;1745848;80;21159;-56
2021/06/13 06:42:33;;;;;;;2.33;0.70;;;;;;;22.08;59.43;98537.13;1741554;80;21606;-59
2021/06/13 06:45:00;;;;;;;1.52;0.75;;;;;;;22.15;59.17;98542.24;1754865;79;21705;-60
2021/06/13 06:47:27;;;;;;;2.52;0.80;;;;;;;22.21;58.88;98541.53;1725578;81;21015;-57
2021/06/13 06:49:53;;;;;;;0.70;0.70;;;;;;;22.28;58.45;98541.19;1734974;80;20986;-59
2021/06/13 06:52:20;;;;;;;1.42;0.75;;;;;;;22.35;58.12;98538.58;1738435;80;21112;-57
2021/06/13 06:54:46;;;;;;;1.82;0.82;;;;;;;22.42;58.39;98543.69;1734957;80;21075;-58
2021/06/13 06:57:12;;;;;;;0.95;0.72;;;;;;;22.48;58.82;98545.70;1736029;80;21102;-58
2021/06/13 06:59:39;;;;;;;1.32;0.90;;;;;;;22.51;58.40;98550.84;1736530;80;21504;-57
2021/06/13 07:02:06;;;;;;;1.60;0.90;;;;;;;22.52;58.09;98548.45;1746973;80;21617;-58
2021/06/13 07:04:32;;;;;;;0.78;0.78;;;;;;;22.51;58.05;98551.70;1744830;80;21060;-56
2021/06/13 07:06:59;;;;;;;3.15;0.75;;;;;;;22.54;57.82;98540.91;1744678;80;21167;-57
2021/06/13 07:09:26;;;;;;;0.98;0.80;;;;;;;22.54;57.95;98540.36;1745358;80;21112;-56
2021/06/13 07:11:52;;;;;;;2.15;0.80;;;;;;;22.60;58.38;98542.41;1747032;80;21048;-57
2021/06/13 07:14:18;;;;;;;0.98;0.90;;;;;;;22.67;58.42;98542.53;1747203;80;20942;-60
2021/06/13 07:16:45;;;;;;;0.80;0.80;;;;;;;22.74;58.50;98539.44;1754668;80;21761;-59
2021/06/13 07:19:11;;;;;;;0.95;0.88;;;;;;;22.82;58.20;98541.27;1751917;79;22270;-58
2021/06/13 07:21:38;;;;;;;1.57;0.90;;;;;;;22.90;58.46;98539.84;1749993;80;22194;-57
2021/06/13 07:24:06;;;;;;;3.80;0.80;;;;;;;22.97;58.42;98541.68;1725777;81;21536;-58
2021/06/13 07:26:34;;;;;;;0.80;0.80;;;;;;;23.00;58.05;98546.81;1720668;81;21860;-57
2021/06/13 07:29:01;;;;;;;1.10;1.00;;;;;;;22.97;57.39;98550.43;1716584;81;21779;-58
2021/06/13 07:31:27;;;;;;;1.10;1.00;;;;;;;22.89;57.58;98554.59;1739801;80;21100;-60
2021/06/13 07:33:53;;;;;;;0.95;0.85;;;;;;;22.84;57.82;98553.78;1711820;81;21053;-59
2021/06/13 07:36:21;;;;;;;4.45;0.90;;;;;;;22.85;58.17;98553.27;1737242;80;21038;-56
2021/06/13 07:38:47;;;;;;;1.35;1.00;;;;;;;22.89;58.35;98557.34;1738999;80;21451;-57
2021/06/13 07:41:14;;;;;;;2.05;0.90;;;;;;;22.89;57.71;98555.45;1738843;80;21109;-58
2021/06/13 07:43:40;;;;;;;1.07;1.00;;;;;;;22.90;57.04;98554.42;1739401;80;21119;-58
2021/06/13 07:46:06;;;;;;;0.90;0.90;;;;;;;22.86;57.39;98557.73;1739888;80;21040;-58
2021/06/13 07:48:33;;;;;;;1.02;0.90;;;;;;;22.80;57.35;98555.16;1740083;80;21427;-56
2021/06/13 07:50:59;;;;;;;1.45;0.90;;;;;;;22.74;57.23;98557.75;1742660;80;21508;-56
2021/06/13 07:53:25;;;;;;;1.30;0.90;;;;;;;22.71;57.43;98557.61;1741276;80;21096;-57
2021/06/13 07:55:52;;;;;;;1.20;1.00;;;;;;;22.70;57.32;98558.64;1739189;80;21107;-58
2021/06/13 07:58:18;;;;;;;1.20;1.00;;;;;;;22.65;57.22;98559.16;1750053;80;21035;-58
2021/06/13 08:00:44;;;;;;;1.05;0.90;;;;;;;22.62;57.51;98558.17;1748303;80;21031;-57
2021/06/13 08:03:10;;;;;;;1.27;1.10;;;;;;;22.61;57.81;98562.45;1749818;80;21076;-60
2021/06/13 08:05:38;;;;;;;3.62;0.90;;;;;;;22.61;57.95;98558.34;1752157;80;21147;-58
2021/06/13 08:08:08;;;;;;;2.40;1.17;;;;;;;22.61;57.85;98564.69;1750856;80;21094;-59
2021/06/13 08:10:34;;;;;;;1.20;1.10;;;;;;;22.62;57.66;98558.69;1750851;80;21107;-59
2021/06/13 08:13:01;;;;;;;1.85;0.95;;;;;;;22.60;57.09;98561.60;1751871;80;21088;-57
2021/06/13 08:15:28;;;;;;;1.00;0.90;;;;;;;22.60;56.65;98561.60;1752693;80;20961;-60
2021/06/13 08:17:54;;;;;;;3.85;1.25;;;;;;;22.59;56.78;98557.66;1752494;80;21123;-58
2021/06/13 08:20:21;;;;;;;1.10;0.93;;;;;;;22.63;57.15;98556.25;1751899;80;21822;-57
2021/06/13 08:22:47;;;;;;;2.08;0.95;;;;;;;22.70;57.32;98549.56;1705375;82;22343;-57
2021/06/13 08:25:13;;;;;;;2.98;0.80;;;;;;;22.78;57.76;98558.63;1707386;82;21120;-58
2021/06/13 08:27:40;;;;;;;1.00;0.80;;;;;;;22.86;57.70;98570.07;1705939;82;21106;-56
2021/06/13 08:30:09;;;;;;;1.17;0.95;;;;;;;22.84;56.06;98568.02;1712262;82;20929;-57
2021/06/13 08:32:35;;;;;;;4.17;1.40;;;;;;;22.71;57.04;98567.22;1705777;82;21440;-57
2021/06/13 08:35:04;;;;;;;2.95;1.45;;;;;;;22.53;59.88;98574.33;1732360;81;21109;-56
2021/06/13 08:37:31;;;;;;;1.98;1.25;;;;;;;22.29;61.25;98584.53;1716606;82;20928;-58
2021/06/13 08:39:57;;;;;;;4.80;1.42;;;;;;;22.08;62.59;98583.20;1731945;81;20923;-55
2021/06/13 08:42:24;;;;;;;4.37;2.08;;;;;;;21.91;63.87;98593.82;1731877;81;20980;-57
2021/06/13 08:44:50;;;;;;;2.75;1.55;;;;;;;21.82;65.35;98600.34;1738826;81;21549;-54
2021/06/13 08:47:18;;;;;;;3.05;1.98;;;;;;;21.77;66.20;98600.02;1703179;81;21642;-57
2021/06/13 08:49:46;;;;;;;3.35;2.30;;;;;;;21.78;66.65;98600.33;1694812;81;22987;-57
2021/06/13 08:52:13;;;;;;;2.33;1.90;;;;;;;21.82;67.56;98601.20;1700442;82;21422;-58
2021/06/13 08:54:39;;;;;;;1.67;1.57;;;;;;;21.90;67.81;98608.03;1730796;81;21496;-58
2021/06/13 08:57:06;;;;;;;3.52;1.10;;;;;;;21.98;67.62;98604.45;1726831;81;21498;-57
2021/06/13 08:59:33;;;;;;;1.60;1.50;;;;;;;22.08;67.53;98601.53;1730584;81;21322;-59
2021/06/13 09:02:00;;;;;;;1.10;1.00;;;;;;;22.18;67.08;98599.45;1730961;81;21767;-55
2021/06/13 09:04:26;;;;;;;1.72;1.15;;;;;;;22.31;67.08;98597.52;1729288;81;21111;-58
2021/06/13 09:06:53;;;;;;;1.30;1.20;;;;;;;22.42;66.32;98589.78;1729048;81;21099;-57
2021/06/13 09:09:26;;;;;;;2.20;1.20;;;;;;;22.48;65.37;98598.66;1728636;81;22646;-57
2021/06/13 09:12:01;;;;;;;1.20;1.10;;;;;;;22.47;64.09;98596.95;1728737;81;20925;-57
2021/06/13 09:14:28;;;;;;;3.80;1.07;;;;;;;22.41;63.54;98599.03;1734641;81;20901;-59
2021/06/13 09:16:55;;;;;;;2.55;1.20;;;;;;;22.31;63.65;98592.89;1733363;81;20948;-55
2021/06/13 09:19:22;;;;;;;1.10;1.00;;;;;;;22.24;64.33;98594.12;1731544;81;20920;-57
2021/06/13 09:21:48;;;;;;;1.98;0.85;;;;;;;22.22;63.42;98603.03;1721876;81;21176;-57
2021/06/13 09:24:25;;;;;;;1.90;0.90;;;;;;;22.10;61.96;98599.48;1754904;80;20897;-55
2021/06/13 09:26:53;;;;;;;1.57;1.00;;;;;;;21.93;61.41;98593.66;1751400;80;20870;-57
2021/06/13 09:29:19;;;;;;;1.05;0.90;;;;;;;21.82;61.77;98591.61;1732778;81;21512;-57
2021/06/13 09:32:03;;;;;;;0.93;0.80;;;;;;;21.78;62.70;98602.55;1751271;80;21444;-57
2021/06/13 09:34:29;;;;;;;0.80;0.80;;;;;;;21.82;63.05;98597.08;1719640;81;21791;-55
2021/06/13 09:37:04;;;;;;;0.85;0.70;;;;;;;21.87;62.76;98599.29;1756959;80;21147;-55
2021/06/13 09:39:31;;;;;;;0.60;0.60;;;;;;;21.83;61.63;98592.47;1751693;80;21031;-56
2021/06/13 09:42:09;;;;;;;0.72;0.70;;;;;;;21.71;61.48;98603.42;1730816;81;21012;-56
2021/06/13 09:44:36;;;;;;;0.60;0.60;;;;;;;21.56;61.66;98607.36;1727716;80;21534;-54
2021/06/13 09:47:03;;;;;;;0.50;0.50;;;;;;;21.44;61.82;98606.84;1746866;80;21523;-56
2021/06/13 09:49:45;;;;;;;0.50;0.50;;;;;;;21.40;62.27;98600.52;1750410;80;21048;-56
2021/06/13 09:52:11;;;;;;;0.88;0.40;;;;;;;21.37;62.32;98611.80;1735154;80;21132;-53
2021/06/13 09:54:38;;;;;;;0.45;0.42;;;;;;;21.34;62.70;98625.33;1744086;80;21499;-55
2021/06/13 09:57:06;;;;;;;0.40;0.40;;;;;;;21.28;62.78;98632.83;1738124;80;22445;-56
2021/06/13 09:59:33;;;;;;;0.50;0.50;;;;;;;21.19;62.52;98628.36;1740050;80;21147;-56
2021/06/13 10:02:03;;;;;;;0.30;0.30;;;;;;;21.11;62.55;98631.05;1741170;80;20986;-57
2021/06/13 10:04:33;;;;;;;0.30;0.30;;;;;;;21.03;62.73;98633.25;1738657;80;21339;-55
2021/06/13 10:07:23;;;;;;;0.35;0.30;;;;;;;20.93;62.46;98636.64;1740645;80;21588;-56
2021/06/13 10:09:52;;;;;;;0.20;0.20;;;;;;;20.82;61.86;98634.73;1738192;80;21101;-57
2021/06/13 10:12:24;;;;;;;0.35;0.30;;;;;;;20.72;61.76;98640.34;1742116;80;21752;-57
2021/06/13 10:14:51;;;;;;;0.23;0.23;;;;;;;20.66;61.67;98636.91;1741410;80;21062;-55
2021/06/13 10:17:17;;;;;;;1.75;0.20;;;;;;;20.60;61.52;98637.54;1744559;80;21079;-57
2021/06/13 10:19:46;;;;;;;0.72;0.20;;;;;;;20.53;61.90;98631.88;1740902;80;21045;-55
2021/06/13 10:22:15;;;;;;;0.20;0.20;;;;;;;20.47;61.68;98621.61;1743082;80;21395;-54
2021/06/13 10:24:42;;;;;;;0.55;0.20;;;;;;;20.36;61.54;98613.17;1747471;80;21097;-57
2021/06/13 10:27:11;;;;;;;0.30;0.20;;;;;;;20.27;61.01;98605.06;1744888;80;21078;-56
2021/06/13 10:29:40;;;;;;;0.10;0.10;;;;;;;20.20;60.30;98603.50;1749125;80;20901;-57
2021/06/13 10:32:07;;;;;;;0.17;0.17;;;;;;;20.15;60.15;98593.58;1741170;80;21290;-55
2021/06/13 10:34:34;;;;;;;0.50;0.20;;;;;;;20.15;60.02;98593.58;1741144;80;21118;-54
2021/06/13 10:37:06;;;;;;;0.20;0.20;;;;;;;20.19;59.98;98588.63;1745795;80;21081;-56
2021/06/13 10:39:36;;;;;;;0.55;0.20;;;;;;;20.26;60.05;98605.58;1744192;80;21578;-56
2021/06/13 10:42:03;;;;;;;1.30;0.20;;;;;;;20.34;60.07;98621.19;1745599;80;21092;-56
2021/06/13 10:44:31;;;;;;;0.10;0.10;;;;;;;20.42;60.14;98637.63;1748539;80;22025;-56
2021/06/13 10:47:11;;;;;;;0.20;0.20;;;;;;;20.53;58.96;98661.09;1752198;80;21020;-56
2021/06/13 10:49:41;;;;;;;0.37;0.20;;;;;;;20.56;57.83;98659.41;1741126;80;22310;-55
2021/06/13 10:52:12;;;;;;;1.45;0.20;;;;;;;20.60;58.54;98661.64;1740220;80;21073;-54
2021/06/13 10:54:53;;;;;;;0.30;0.20;;;;;;;20.70;57.66;98656.91;1737097;80;21061;-56
2021/06/13 10:57:24;;;;;;;0.10;0.10;;;;;;;20.81;57.16;98656.27;1687088;81;21283;-55
2021/06/13 10:59:55;;;;;;;1.45;0.10;;;;;;;20.90;57.16;98654.77;1747016;80;21081;-56
2021/06/13 11:02:24;;;;;;;0.75;0.20;;;;;;;21.02;56.90;98653.42;1747409;80;21845;-56
2021/06/13 11:04:53;;;;;;;1.02;0.20;;;;;;;21.13;56.78;98657.73;1743558;80;21075;-54
2021/06/13 11:07:35;;;;;;;0.15;0.10;;;;;;;21.17;55.46;98655.06;1747053;80;21060;-54
2021/06/13 11:10:11;;;;;;;0.10;0.10;;;;;;;21.13;55.08;98648.16;1746237;80;21124;-53
2021/06/13 11:13:04;;;;;;;0.20;0.20;;;;;;;21.11;54.82;98646.95;1747831;80;21527;-55
2021/06/13 11:15:41;;;;;;;0.10;0.10;;;;;;;21.11;55.10;98651.56;1746198;80;21202;-56
2021/06/13 11:18:17;;;;;;;0.10;0.10;;;;;;;21.13;55.22;98639.45;1745109;80;21016;-56
2021/06/13 11:21:08;;;;;;;0.10;0.10;;;;;;;21.19;54.98;98635.20;1744690;80;21285;-55
2021/06/13 11:23:38;;;;;;;1.27;0.10;;;;;;;21.27;54.99;98653.52;1752807;80;21036;-56
2021/06/13 11:26:08;;;;;;;0.30;0.20;;;;;;;21.36;54.86;98662.09;1755099;80;21084;-56
2021/06/13 11:28:42;;;;;;;0.10;0.10;;;;;;;21.45;54.86;98677.50;1741857;80;21436;-54
2021/06/13 11:31:16;;;;;;;0.20;0.10;;;;;;;21.45;53.33;98666.55;1741408;80;21037;-55
2021/06/13 11:33:47;;;;;;;0.30;0.20;;;;;;;21.41;54.09;98653.73;1738186;80;21065;-53
2021/06/13 11:36:23;;;;;;;0.20;0.10;;;;;;;21.43;54.52;98661.78;1735502;80;21554;-56
2021/06/13 11:39:08;;;;;;;0.10;0.10;;;;;;;21.42;53.93;98666.91;1733625;80;21152;-55
2021/06/13 11:41:47;;;;;;;0.30;0.10;;;;;;;21.38;52.92;98670.48;1738720;79;21149;-55
2021/06/13 11:44:29;;;;;;;0.20;0.10;;;;;;;21.25;52.54;98667.39;1731868;81;21084;-54
2021/06/13 11:46:55;;;;;;;0.00;0.00;;;;;;;21.13;53.07;98676.38;1738018;80;21180;-55
2021/06/13 11:49:44;;;;;;;2.77;0.10;;;;;;;21.07;52.87;98661.15;1737788;80;21062;-56